Time;durP1;ratioP1;P1;durP2;ratioP2;P2;SDS_P1;SDS_P2;PMS_P1;PMS_P2;Temp;Humidity;BMP_temperature;BMP_pressure;BME280_temperature;BME280_humidity;BME280_pressure;Samples;Min_cycle;Max_cycle;Signal;HPM_P1;HPM_P2
2022/04/16 00:01:42;;;;;;;;;6.50;6.50;;;;;14.77;54.78;101814.53;5094257;27;45943;-79
2022/04/16 00:04:09;;;;;;;;;9.75;7.00;;;;;14.77;55.00;101815.41;5096450;27;45418;-79
2022/04/16 00:06:35;;;;;;;;;8.75;6.25;;;;;14.72;55.16;101812.81;5090170;27;45454;-79
2022/04/16 00:09:01;;;;;;;;;12.00;7.00;;;;;14.69;54.90;101812.88;5089858;27;45430;-79
2022/04/16 00:11:26;;;;;;;;;15.50;11.50;;;;;14.65;55.36;101816.53;5096978;27;45484;-80
2022/04/16 00:13:51;;;;;;;;;9.75;7.75;;;;;14.62;55.34;101811.25;5056422;28;45865;-79
2022/04/16 00:16:19;;;;;;;;;8.00;6.00;;;;;14.55;55.29;101809.56;5079187;27;45359;-79
2022/04/16 00:18:45;;;;;;;;;17.75;11.00;;;;;14.57;55.86;101823.72;5082876;27;45253;-81
2022/04/16 00:21:11;;;;;;;;;6.25;3.00;;;;;14.52;55.82;101804.28;5098298;27;45283;-79
2022/04/16 00:23:37;;;;;;;;;12.75;9.00;;;;;14.51;55.66;101816.69;5102434;27;45362;-80
2022/04/16 00:26:02;;;;;;;;;10.00;8.00;;;;;14.45;56.36;101802.63;5104762;27;45519;-79
2022/04/16 00:28:28;;;;;;;;;9.25;6.75;;;;;14.44;56.27;101816.81;5103466;27;45448;-79
2022/04/16 00:30:56;;;;;;;;;6.00;6.00;;;;;14.38;56.63;101809.84;5100958;27;45397;-80
2022/04/16 00:33:24;;;;;;;;;6.25;3.75;;;;;14.33;57.04;101817.00;5080635;27;45398;-74
2022/04/16 00:35:49;;;;;;;;;12.00;7.00;;;;;14.27;57.38;101803.81;5079165;27;45362;-75
2022/04/16 00:38:15;;;;;;;;;11.50;11.50;;;;;14.17;57.46;101806.63;5097422;27;45719;-74
2022/04/16 00:40:40;;;;;;;;;13.25;9.75;;;;;14.12;58.28;101810.25;5090351;27;45291;-75
2022/04/16 00:43:06;;;;;;;;;10.50;9.75;;;;;13.99;57.84;101789.16;5059617;28;45705;-74
2022/04/16 00:45:33;;;;;;;;;3.75;1.50;;;;;14.03;58.62;101812.16;5089672;27;45446;-75
2022/04/16 00:47:59;;;;;;;;;10.25;8.75;;;;;14.02;58.27;101809.50;5097873;27;45571;-75
2022/04/16 00:50:25;;;;;;;;;17.75;14.00;;;;;13.97;58.65;101812.25;5097132;27;45531;-75
2022/04/16 00:52:51;;;;;;;;;11.00;9.25;;;;;13.94;58.62;101806.97;5077765;27;45541;-75
2022/04/16 00:55:17;;;;;;;;;15.50;7.00;;;;;13.89;58.93;101811.44;5079119;28;45371;-73
2022/04/16 00:57:42;;;;;;;;;5.50;3.00;;;;;13.85;59.28;101807.97;5078653;28;45417;-74
2022/04/16 01:00:10;;;;;;;;;12.00;12.00;;;;;13.76;59.32;101802.78;5092902;27;45299;-75
2022/04/16 01:02:38;;;;;;;;;12.75;11.50;;;;;13.79;59.57;101796.56;5079317;27;45898;-74
2022/04/16 01:05:05;;;;;;;;;18.00;10.00;;;;;13.75;59.75;101800.16;5097488;27;45442;-74
2022/04/16 01:07:31;;;;;;;;;16.00;13.00;;;;;13.71;59.74;101803.75;5097009;27;45402;-74
2022/04/16 01:09:57;;;;;;;;;12.25;9.25;;;;;13.70;59.88;101807.31;5097447;27;45386;-75
2022/04/16 01:12:23;;;;;;;;;9.75;7.50;;;;;13.67;60.04;101803.78;5077173;27;45311;-76
2022/04/16 01:14:50;;;;;;;;;10.50;10.00;;;;;13.64;59.94;101801.16;5076607;27;45658;-74
2022/04/16 01:17:16;;;;;;;;;13.00;10.00;;;;;13.58;60.31;101798.59;5077476;28;45355;-75
2022/04/16 01:19:43;;;;;;;;;13.75;12.25;;;;;13.55;60.50;101797.78;5099359;27;46162;-74
2022/04/16 01:22:13;;;;;;;;;10.25;7.50;;;;;13.53;60.81;101799.53;5090954;27;45499;-74
2022/04/16 01:24:43;;;;;;;;;12.50;10.00;;;;;13.54;60.78;101806.63;5095029;27;45457;-75
2022/04/16 01:27:09;;;;;;;;;14.75;14.75;;;;;13.54;60.49;101804.84;5080510;27;45649;-75
2022/04/16 01:29:35;;;;;;;;;9.00;6.00;;;;;13.55;60.64;101803.09;5096881;27;46053;-75
2022/04/16 01:32:00;;;;;;;;;9.25;9.25;;;;;13.52;60.95;101804.00;5096350;27;45384;-76
2022/04/16 01:34:26;;;;;;;;;11.50;8.00;;;;;13.50;60.97;101805.81;5096380;27;45680;-74
2022/04/16 01:36:52;;;;;;;;;11.25;9.75;;;;;13.50;60.87;101805.81;5096545;27;45607;-75
2022/04/16 01:39:18;;;;;;;;;15.50;10.00;;;;;13.45;61.04;101797.00;5097183;27;47126;-75
2022/04/16 01:41:43;;;;;;;;;9.00;9.00;;;;;13.47;61.07;101804.06;5065492;28;45479;-75
2022/04/16 01:44:08;;;;;;;;;14.50;10.00;;;;;13.48;61.07;101796.94;5085037;27;45339;-74
2022/04/16 01:46:36;;;;;;;;;17.00;14.50;;;;;13.43;61.19;101798.81;5097571;27;45373;-75
2022/04/16 01:49:01;;;;;;;;;12.00;11.50;;;;;13.41;61.30;101811.22;5096624;27;47085;-75
2022/04/16 01:51:27;;;;;;;;;13.00;13.00;;;;;13.33;61.94;101804.22;5087201;27;45515;-79
2022/04/16 01:53:52;;;;;;;;;19.75;18.25;;;;;13.30;61.75;101808.63;5062439;27;45459;-77
2022/04/16 01:56:17;;;;;;;;;7.00;6.50;;;;;13.24;62.11;101793.69;5083258;28;45390;-80
2022/04/16 01:58:44;;;;;;;;;15.00;10.75;;;;;13.21;62.49;101799.03;5079847;28;45491;-79
2022/04/16 02:01:10;;;;;;;;;10.25;10.25;;;;;13.21;62.42;101814.97;5079759;27;45710;-79
2022/04/16 02:03:36;;;;;;;;;12.25;12.00;;;;;13.20;62.02;101823.81;5089303;27;45557;-79
2022/04/16 02:06:05;;;;;;;;;21.25;15.00;;;;;13.12;62.30;101810.63;5098101;27;45397;-80
2022/04/16 02:08:30;;;;;;;;;9.50;7.00;;;;;13.11;63.03;101808.84;5078123;27;46154;-79
2022/04/16 02:10:55;;;;;;;;;11.25;7.00;;;;;13.06;63.08;101810.69;5094910;27;45394;-79
2022/04/16 02:13:21;;;;;;;;;8.25;7.00;;;;;13.05;62.89;101813.38;5096474;27;45480;-80
2022/04/16 02:15:46;;;;;;;;;13.00;8.50;;;;;13.04;63.08;101807.19;5097542;27;45351;-79
2022/04/16 02:18:12;;;;;;;;;15.25;15.25;;;;;13.02;62.88;101810.75;5096148;27;46029;-78
2022/04/16 02:20:38;;;;;;;;;12.25;9.75;;;;;12.97;63.44;101811.66;5080401;27;45322;-79
2022/04/16 02:23:04;;;;;;;;;15.75;15.75;;;;;12.93;63.67;101807.28;5076611;27;45434;-79
2022/04/16 02:25:30;;;;;;;;;10.00;10.00;;;;;12.85;63.75;101805.63;5096846;27;45402;-79
2022/04/16 02:27:55;;;;;;;;;14.75;11.50;;;;;12.79;64.04;101802.09;5101629;27;46090;-78
2022/04/16 02:30:22;;;;;;;;;15.75;12.00;;;;;12.79;63.65;101814.50;5097196;27;45455;-78
2022/04/16 02:32:52;;;;;;;;;20.50;15.00;;;;;12.75;63.77;101807.47;5107412;27;45473;-79
2022/04/16 02:35:18;;;;;;;;;15.25;14.50;;;;;12.72;64.29;101807.50;5076695;27;45653;-79
2022/04/16 02:37:44;;;;;;;;;15.00;15.00;;;;;12.67;64.08;101809.31;5075664;28;45524;-78
2022/04/16 02:40:10;;;;;;;;;15.25;12.75;;;;;12.65;64.20;101813.75;5076090;27;45438;-78
2022/04/16 02:42:37;;;;;;;;;18.25;15.25;;;;;12.65;64.69;101825.25;5076536;27;45343;-80
2022/04/16 02:47:53;;;;;;;;;15.75;13.00;;;;;12.54;64.40;101816.50;5079714;27;45486;-79
2022/04/16 02:50:20;;;;;;;;;25.25;13.00;;;;;12.53;64.75;101826.22;5076387;27;45464;-79
2022/04/16 02:52:48;;;;;;;;;7.50;1.00;;;;;12.49;64.86;101819.19;5075881;28;45438;-80
2022/04/16 02:55:16;;;;;;;;;14.00;12.00;;;;;12.46;64.74;101824.50;5084710;27;45399;-80
2022/04/16 02:57:45;;;;;;;;;16.00;15.25;;;;;12.41;65.24;101811.28;5097856;27;45342;-79
2022/04/16 03:00:12;;;;;;;;;20.00;12.75;;;;;12.40;65.42;101813.97;5075997;28;45479;-79
2022/04/16 03:02:37;;;;;;;;;18.50;15.00;;;;;12.39;65.19;101814.84;5077963;28;45497;-80
2022/04/16 03:05:06;;;;;;;;;16.00;12.00;;;;;12.39;65.55;101818.38;5076373;28;45402;-80
2022/04/16 03:07:35;;;;;;;;;15.75;12.00;;;;;12.36;65.10;101807.81;5075007;28;45468;-81
2022/04/16 03:10:02;;;;;;;;;7.75;4.00;;;;;12.29;65.38;101799.91;5076662;27;45538;-81
2022/04/16 03:12:39;;;;;;;;;17.00;12.50;;;;;12.29;65.43;101802.56;5077616;28;45474;-80
2022/04/16 03:17:49;;;;;;;;;14.25;11.50;;;;;12.25;65.68;101812.28;5075578;28;45852;-79
2022/04/16 03:20:14;;;;;;;;;17.50;15.25;;;;;12.19;65.40;101818.53;5101624;27;45436;-79
2022/04/16 03:22:42;;;;;;;;;13.25;11.75;;;;;12.14;65.72;101801.78;5095374;27;45380;-79
2022/04/16 03:25:08;;;;;;;;;18.00;12.00;;;;;12.16;65.20;101809.72;5061806;28;45507;-79
2022/04/16 03:27:34;;;;;;;;;14.25;12.50;;;;;12.09;65.53;101801.81;5080227;28;46190;-80
2022/04/16 03:29:59;;;;;;;;;22.25;20.00;;;;;12.08;65.79;101812.41;5091141;27;45481;-79
2022/04/16 03:32:24;;;;;;;;;19.50;12.25;;;;;12.04;65.94;101810.66;5096767;27;45399;-78
2022/04/16 03:34:50;;;;;;;;;17.25;17.25;;;;;12.00;66.03;101811.59;5079638;27;45439;-79
2022/04/16 03:37:15;;;;;;;;;22.25;17.50;;;;;12.01;65.64;101811.59;5095903;27;45497;-79
2022/04/16 03:39:41;;;;;;;;;20.50;13.50;;;;;11.96;66.00;101807.19;5087863;27;45508;-80
2022/04/16 03:42:06;;;;;;;;;20.50;17.50;;;;;11.85;65.98;101799.28;5074455;28;45402;-79
2022/04/16 03:44:31;;;;;;;;;14.75;12.50;;;;;11.81;66.42;101800.19;5075680;28;45526;-78
2022/04/16 03:46:57;;;;;;;;;18.75;17.25;;;;;11.82;66.15;101813.41;5076698;28;46105;-80
2022/04/16 03:49:22;;;;;;;;;17.00;15.75;;;;;11.77;66.42;101804.63;5084687;27;45434;-78
2022/04/16 03:51:48;;;;;;;;;6.50;6.50;;;;;11.79;66.45;101809.94;5097159;27;45764;-79
2022/04/16 03:59:59;;;;;;;;;14.50;12.75;;;;;11.63;66.60;101798.50;5096395;27;45595;-79
2022/04/16 04:02:26;;;;;;;;;19.50;15.25;;;;;11.63;66.44;101802.06;5097183;27;45389;-79
2022/04/16 04:04:52;;;;;;;;;21.25;13.50;;;;;11.54;66.71;101792.38;5098131;27;45402;-79
2022/04/16 04:07:18;;;;;;;;;18.00;16.50;;;;;11.55;67.19;101795.91;5096343;27;45537;-79
2022/04/16 04:09:44;;;;;;;;;14.25;10.50;;;;;11.52;67.00;101795.91;5077259;27;45626;-79
2022/04/16 04:12:13;;;;;;;;;16.50;16.50;;;;;11.49;66.35;101802.13;5095430;27;45314;-79
2022/04/16 04:14:42;;;;;;;;;24.75;14.50;;;;;11.48;66.39;101800.38;5076199;27;45532;-81
2022/04/16 04:17:08;;;;;;;;;13.00;12.50;;;;;11.49;66.52;101811.81;5076576;28;46333;-80
2022/04/16 04:19:39;;;;;;;;;22.25;14.75;;;;;11.49;66.94;101815.38;5082649;27;45412;-80
2022/04/16 04:22:05;;;;;;;;;21.75;14.00;;;;;11.44;66.85;101806.53;5075159;28;45495;-80
2022/04/16 04:24:31;;;;;;;;;16.50;16.50;;;;;11.43;66.39;101812.72;5075712;28;45601;-79
2022/04/16 04:26:58;;;;;;;;;15.25;12.75;;;;;11.40;66.81;101807.44;5076478;27;45377;-79
2022/04/16 04:29:24;;;;;;;;;18.75;11.00;;;;;11.41;66.69;101814.50;5083101;27;45276;-79
2022/04/16 04:31:49;;;;;;;;;15.25;15.25;;;;;11.37;66.60;101813.66;5058612;28;45422;-76
2022/04/16 04:34:15;;;;;;;;;16.75;16.00;;;;;11.34;66.71;101812.75;5073855;28;45303;-76
2022/04/16 04:36:40;;;;;;;;;18.75;17.00;;;;;11.35;66.73;101825.97;5083460;27;45427;-74
2022/04/16 04:39:05;;;;;;;;;9.00;9.00;;;;;11.30;66.44;101814.53;5093524;27;45396;-76
2022/04/16 04:41:31;;;;;;;;;16.75;12.25;;;;;11.34;66.69;101826.00;5094527;27;45382;-75
2022/04/16 04:43:56;;;;;;;;;19.00;15.00;;;;;11.32;66.73;101826.00;5095093;27;45502;-75
2022/04/16 04:46:22;;;;;;;;;15.25;14.75;;;;;11.31;66.36;101829.56;5093802;27;45553;-75
2022/04/16 04:48:47;;;;;;;;;24.75;23.25;;;;;11.29;66.87;101820.72;5093540;27;45391;-75
2022/04/16 04:51:12;;;;;;;;;17.00;13.00;;;;;11.30;66.83;101826.91;5074230;27;45387;-75
2022/04/16 04:53:38;;;;;;;;;15.00;12.75;;;;;11.30;66.78;101821.63;5073124;28;45511;-75
2022/04/16 04:56:04;;;;;;;;;21.00;17.50;;;;;11.30;66.17;101817.19;5075118;27;45477;-80
2022/04/16 04:58:30;;;;;;;;;13.75;12.50;;;;;11.31;66.41;101818.97;5078368;28;45353;-79
2022/04/16 05:00:56;;;;;;;;;20.50;20.50;;;;;11.33;66.02;101822.47;5095103;27;45462;-79
2022/04/16 05:03:21;;;;;;;;;16.00;10.50;;;;;11.27;66.34;101816.34;5076839;27;45512;-79
2022/04/16 05:05:47;;;;;;;;;18.50;13.00;;;;;11.27;66.44;101821.63;5090413;27;46620;-79
2022/04/16 05:08:13;;;;;;;;;19.75;18.25;;;;;11.31;66.32;101829.56;5080486;28;44780;-79
2022/04/16 05:10:38;;;;;;;;;19.50;15.75;;;;;11.34;65.97;101823.34;5081003;27;45438;-79
2022/04/16 05:13:03;;;;;;;;;18.50;18.25;;;;;11.52;66.13;101835.63;5087268;27;45475;-81
2022/04/16 05:15:29;;;;;;;;;21.50;15.75;;;;;11.75;65.21;101835.53;5098915;27;45330;-79
2022/04/16 05:17:55;;;;;;;;;20.50;16.00;;;;;12.00;64.31;101830.16;5098562;27;45324;-76
2022/04/16 05:20:20;;;;;;;;;19.50;16.50;;;;;12.30;63.33;101841.41;5097089;27;45505;-75
2022/04/16 05:22:46;;;;;;;;;20.50;15.25;;;;;12.52;62.88;101842.16;5076825;27;45444;-75
2022/04/16 05:25:12;;;;;;;;;20.25;13.00;;;;;12.49;62.55;101843.03;5076645;27;47550;-76
2022/04/16 05:27:37;;;;;;;;;18.00;14.50;;;;;12.45;62.79;101849.28;5097346;27;45380;-75
2022/04/16 05:30:06;;;;;;;;;22.25;19.50;;;;;12.37;62.73;101846.66;5089148;27;45476;-75
2022/04/16 05:32:34;;;;;;;;;15.75;14.00;;;;;12.32;62.38;101840.53;5097682;27;45576;-75
2022/04/16 05:34:59;;;;;;;;;25.25;20.25;;;;;12.27;62.55;101850.31;5098737;27;45383;-76
2022/04/16 05:37:25;;;;;;;;;17.75;15.50;;;;;12.23;62.92;101844.13;5084022;27;45459;-75
2022/04/16 05:39:50;;;;;;;;;19.25;17.75;;;;;12.30;62.52;101857.31;5085838;27;45505;-76
2022/04/16 05:42:16;;;;;;;;;24.75;22.00;;;;;12.33;62.62;101852.91;5078376;27;45640;-76
2022/04/16 05:44:41;;;;;;;;;15.00;12.75;;;;;12.44;62.26;101869.59;5072245;28;46281;-76
2022/04/16 05:47:06;;;;;;;;;17.50;11.75;;;;;12.52;61.62;101864.25;5076571;28;45341;-76
2022/04/16 05:49:32;;;;;;;;;26.25;18.25;;;;;12.70;60.83;101865.88;5076051;27;45484;-76
2022/04/16 05:51:57;;;;;;;;;17.75;16.75;;;;;12.94;60.78;101864.78;5078290;27;45453;-76
2022/04/16 05:54:22;;;;;;;;;33.25;27.75;;;;;13.09;59.91;101868.19;5078438;27;48073;-75
2022/04/16 05:56:48;;;;;;;;;15.00;12.75;;;;;13.44;59.03;101870.47;5096929;27;45408;-79
2022/04/16 05:59:13;;;;;;;;;19.25;17.75;;;;;13.83;57.97;101865.59;5102227;27;45449;-74
2022/04/16 06:01:39;;;;;;;;;24.00;22.75;;;;;14.31;56.71;101864.03;5096716;27;45473;-76
2022/04/16 06:04:04;;;;;;;;;25.75;15.75;;;;;15.04;55.51;101866.41;5079158;27;45613;-75
2022/04/16 06:06:29;;;;;;;;;28.25;26.00;;;;;15.17;53.72;101864.38;5076749;28;45476;-76
2022/04/16 06:08:55;;;;;;;;;20.25;15.75;;;;;15.25;53.92;101881.09;5087990;27;45864;-76
2022/04/16 06:11:21;;;;;;;;;18.50;14.50;;;;;15.45;52.97;101878.91;5096508;27;45452;-74
2022/04/16 06:13:46;;;;;;;;;23.00;21.50;;;;;15.64;52.22;101882.09;5095741;27;45538;-74
2022/04/16 06:16:12;;;;;;;;;12.25;12.00;;;;;15.84;51.96;101870.19;5076471;27;46406;-76
2022/04/16 06:18:37;;;;;;;;;18.25;18.25;;;;;16.38;51.00;101881.41;5077370;27;45396;-75
2022/04/16 06:21:03;;;;;;;;;22.50;20.00;;;;;17.10;49.63;101870.75;5096436;27;45531;-77
2022/04/16 06:23:31;;;;;;;;;36.25;22.75;;;;;17.66;47.49;101867.41;5094528;27;45466;-76
2022/04/16 06:25:57;;;;;;;;;26.50;20.50;;;;;18.00;46.79;101882.47;5077964;27;45355;-76
2022/04/16 06:28:22;;;;;;;;;33.25;25.25;;;;;18.69;45.70;101868.69;5080834;27;45322;-76
2022/04/16 06:30:47;;;;;;;;;23.00;23.00;;;;;19.15;44.37;101868.00;5075471;27;45532;-77
2022/04/16 06:33:12;;;;;;;;;27.50;20.25;;;;;19.54;43.02;101880.03;5077125;28;52748;-75
2022/04/16 06:35:38;;;;;;;;;21.50;16.00;;;;;20.07;42.08;101878.91;5091577;27;45752;-75
2022/04/16 06:38:03;;;;;;;;;21.00;18.75;;;;;20.59;41.31;101876.81;5092879;27;45444;-76
2022/04/16 06:40:29;;;;;;;;;21.50;18.00;;;;;21.34;39.72;101871.84;5097292;27;45389;-75
2022/04/16 06:42:54;;;;;;;;;25.50;23.25;;;;;21.90;39.03;101875.59;5096280;27;45523;-77
2022/04/16 06:45:20;;;;;;;;;22.50;20.00;;;;;22.46;37.48;101862.19;5096662;27;45516;-75
2022/04/16 06:47:45;;;;;;;;;26.50;20.25;;;;;22.57;36.35;101867.03;5081969;27;45697;-75
2022/04/16 06:50:10;;;;;;;;;21.75;19.50;;;;;22.85;36.00;101861.09;5075114;28;50130;-76
2022/04/16 06:52:36;;;;;;;;;27.00;22.50;;;;;22.93;35.67;101863.38;5076008;28;46166;-76
2022/04/16 06:55:03;;;;;;;;;18.50;15.25;;;;;23.10;35.08;101849.94;5074726;28;45464;-76
2022/04/16 06:57:28;;;;;;;;;27.75;24.50;;;;;23.66;34.27;101857.75;5077372;27;45475;-75
2022/04/16 06:59:53;;;;;;;;;22.50;20.00;;;;;23.53;34.54;101854.84;5075604;28;45393;-77
2022/04/16 07:02:19;;;;;;;;;25.25;19.75;;;;;23.89;33.91;101857.38;5079507;27;45295;-75
2022/04/16 07:04:45;;;;;;;;;26.50;23.25;;;;;24.14;33.68;101858.66;5096141;27;45268;-74
2022/04/16 07:07:10;;;;;;;;;31.75;26.75;;;;;24.23;32.97;101852.75;5069839;27;45426;-75
2022/04/16 07:09:39;;;;;;;;;24.00;20.25;;;;;24.43;32.71;101858.81;5087994;27;45353;-76
2022/04/16 07:12:12;;;;;;;;;30.75;26.00;;;;;24.91;32.54;101854.19;5094793;27;45508;-75
2022/04/16 07:14:39;;;;;;;;;28.50;21.00;;;;;25.60;31.71;101854.50;5094401;27;45539;-76
2022/04/16 07:17:07;;;;;;;;;29.25;26.00;;;;;26.00;30.78;101854.63;5075897;27;45525;-75
2022/04/16 07:19:34;;;;;;;;;29.25;23.00;;;;;26.18;30.11;101844.44;5088539;27;45471;-77
2022/04/16 07:22:00;;;;;;;;;28.00;27.25;;;;;26.26;29.84;101837.66;5094552;27;46176;-75
2022/04/16 07:24:25;;;;;;;;;25.50;24.50;;;;;26.62;29.71;101839.72;5094503;27;45836;-76
2022/04/16 07:26:53;;;;;;;;;29.25;27.25;;;;;27.01;28.75;101840.69;5073973;27;45435;-76
2022/04/16 07:29:26;;;;;;;;;25.00;24.50;;;;;27.03;28.58;101841.44;5093539;27;45661;-77
2022/04/16 07:31:51;;;;;;;;;22.75;19.50;;;;;26.85;28.80;101840.88;5098022;27;46188;-76
2022/04/16 07:34:17;;;;;;;;;18.50;18.00;;;;;26.91;28.56;101845.00;5095601;27;45313;-77
2022/04/16 07:36:44;;;;;;;;;27.50;24.75;;;;;26.61;28.50;101837.97;5095144;27;45505;-78
2022/04/16 07:39:10;;;;;;;;;21.75;18.25;;;;;27.05;28.80;101847.59;5095535;27;45374;-80
2022/04/16 07:41:36;;;;;;;;;24.00;21.25;;;;;27.03;27.95;101844.16;5094089;27;46096;-80
2022/04/16 07:44:03;;;;;;;;;24.00;21.00;;;;;26.72;29.59;101848.09;5095436;27;45479;-80
2022/04/16 07:46:33;;;;;;;;;23.00;17.50;;;;;26.91;28.48;101853.16;5097968;27;45431;-81
2022/04/16 07:48:59;;;;;;;;;24.75;22.00;;;;;27.06;27.67;101857.50;5083532;27;45537;-79
2022/04/16 07:51:26;;;;;;;;;29.75;22.00;;;;;26.90;28.48;101860.38;5086067;27;46335;-79
2022/04/16 07:53:58;;;;;;;;;24.50;17.50;;;;;27.30;28.00;101859.47;5093708;27;45604;-80
2022/04/16 07:56:24;;;;;;;;;26.00;19.75;;;;;27.36;27.80;101855.47;5071858;27;45363;-80
2022/04/16 07:58:50;;;;;;;;;28.00;22.50;;;;;27.64;27.66;101854.34;5096099;27;45416;-74
2022/04/16 08:01:16;;;;;;;;;21.00;20.00;;;;;27.57;27.63;101853.06;5094902;27;45463;-73
2022/04/16 08:03:42;;;;;;;;;16.75;12.75;;;;;27.50;27.44;101868.94;5080544;27;45416;-78
2022/04/16 08:06:07;;;;;;;;;22.25;18.75;;;;;27.19;27.79;101862.91;5093542;27;45904;-73
2022/04/16 08:08:33;;;;;;;;;23.00;19.00;;;;;27.09;27.86;101870.84;5074148;27;45592;-74
2022/04/16 08:10:58;;;;;;;;;21.75;19.25;;;;;26.95;27.98;101858.25;5077108;27;46367;-75
2022/04/16 08:13:23;;;;;;;;;22.75;21.50;;;;;26.63;28.34;101864.97;5089121;27;45390;-74
2022/04/16 08:15:49;;;;;;;;;30.00;25.00;;;;;26.49;29.27;101869.47;5091687;27;45444;-81
2022/04/16 08:18:15;;;;;;;;;28.00;22.50;;;;;26.42;28.57;101868.19;5092636;27;45326;-80
2022/04/16 08:20:41;;;;;;;;;22.75;18.00;;;;;26.80;28.51;101872.88;5093564;27;46080;-77
2022/04/16 08:23:07;;;;;;;;;25.00;17.75;;;;;27.33;28.15;101871.97;5092455;27;45381;-78
2022/04/16 08:28:03;;;;;;;;;25.50;23.25;;;;;28.01;27.25;101873.41;5092480;27;45477;-79
2022/04/16 08:30:29;;;;;;;;;17.75;15.75;;;;;27.91;26.99;101877.78;5095413;27;45484;-81
2022/04/16 08:32:55;;;;;;;;;25.25;21.50;;;;;27.97;26.91;101882.78;5097756;27;45422;-80
2022/04/16 08:35:20;;;;;;;;;19.25;18.25;;;;;28.19;26.45;101888.34;5097869;27;45434;-79
2022/04/16 08:37:48;;;;;;;;;22.25;18.25;;;;;28.01;27.12;101878.84;5079152;27;45462;-79
2022/04/16 08:40:14;;;;;;;;;6.25;3.00;;;;;28.24;26.66;101871.72;5073076;28;45446;-80
2022/04/16 08:42:42;;;;;;;;;19.50;18.50;;;;;28.28;26.91;101883.22;5094420;27;45592;-80
2022/04/16 08:45:09;;;;;;;;;25.50;21.75;;;;;28.19;26.40;101882.03;5095345;27;45403;-79
2022/04/16 08:47:38;;;;;;;;;18.50;18.00;;;;;28.63;26.63;101877.00;5096137;27;45364;-80
2022/04/16 08:50:06;;;;;;;;;23.50;22.00;;;;;28.80;26.09;101879.25;5090989;27;46219;-79
2022/04/16 08:52:34;;;;;;;;;19.75;19.25;;;;;28.67;25.93;101881.22;5080024;28;45458;-79
2022/04/16 08:55:02;;;;;;;;;22.00;19.50;;;;;28.73;26.26;101883.47;5076346;28;45502;-81
2022/04/16 08:57:27;;;;;;;;;24.75;22.00;;;;;28.74;26.17;101887.91;5091696;27;45709;-82
2022/04/16 08:59:54;;;;;;;;;18.00;16.00;;;;;28.81;25.86;101888.31;5091506;27;45724;-81
2022/04/16 09:02:21;;;;;;;;;15.50;15.00;;;;;28.81;26.33;101886.44;5082192;28;45524;-79
2022/04/16 09:04:48;;;;;;;;;15.25;15.00;;;;;29.00;26.27;101888.63;5081652;28;45720;-79
2022/04/16 09:07:14;;;;;;;;;21.25;19.00;;;;;28.86;25.58;101892.44;5089631;27;45373;-80
2022/04/16 09:09:39;;;;;;;;;29.00;24.00;;;;;28.67;25.69;101889.38;5096064;27;46325;-80
2022/04/16 09:12:18;;;;;;;;;18.00;18.00;;;;;28.40;28.08;101890.44;5098098;27;45335;-77
2022/04/16 09:14:45;;;;;;;;;27.75;24.50;;;;;28.39;27.32;101877.81;5097314;27;45354;-77
2022/04/16 09:17:16;;;;;;;;;17.00;11.25;;;;;28.41;27.95;101894.91;5085397;27;45376;-75
2022/04/16 09:19:43;;;;;;;;;18.75;18.75;;;;;28.60;27.23;101885.38;5089265;27;45453;-79
2022/04/16 09:22:09;;;;;;;;;24.75;18.00;;;;;28.86;26.74;101875.22;5097309;27;45463;-76
2022/04/16 09:24:45;;;;;;;;;16.50;15.00;;;;;28.93;26.03;101870.19;5078946;27;45453;-77
2022/04/16 09:27:10;;;;;;;;;20.25;19.00;;;;;29.02;26.57;101875.75;5093743;27;45620;-76
2022/04/16 09:29:36;;;;;;;;;28.25;17.75;;;;;29.12;26.52;101875.88;5096501;27;49448;-75
2022/04/16 09:32:02;;;;;;;;;18.00;18.00;;;;;29.23;26.31;101877.81;5097328;27;45544;-77
2022/04/16 09:34:27;;;;;;;;;16.50;13.00;;;;;29.39;26.29;101869.28;5104078;27;45447;-76
2022/04/16 09:36:54;;;;;;;;;20.75;17.50;;;;;29.27;25.63;101851.22;5098726;27;45327;-79
2022/04/16 09:39:25;;;;;;;;;15.75;7.50;;;;;29.53;25.55;101868.19;5097194;27;46075;-78
2022/04/16 09:41:51;;;;;;;;;17.75;17.75;;;;;29.20;26.05;101868.03;5095616;27;45469;-79
2022/04/16 09:44:20;;;;;;;;;16.50;13.00;;;;;28.88;25.81;101867.81;5097404;27;45532;-77
2022/04/16 09:46:48;;;;;;;;;18.50;17.25;;;;;28.54;25.90;101863.09;5094408;27;45485;-77
2022/04/16 09:49:15;;;;;;;;;15.75;13.50;;;;;28.04;27.11;101862.31;5080276;27;45411;-81
2022/04/16 09:51:42;;;;;;;;;16.25;14.25;;;;;28.38;28.69;101870.69;5088861;27;45478;-80
2022/04/16 09:54:09;;;;;;;;;13.00;13.00;;;;;28.29;27.48;101847.78;5096138;27;45347;-80
2022/04/16 09:56:36;;;;;;;;;10.75;9.00;;;;;28.54;25.96;101860.38;5093006;27;45469;-80
2022/04/16 09:59:12;;;;;;;;;17.25;15.50;;;;;28.26;26.71;101860.75;5064190;27;47482;-79
2022/04/16 10:01:41;;;;;;;;;19.75;17.25;;;;;28.44;26.63;101859.34;5090702;27;45407;-77
2022/04/16 10:04:07;;;;;;;;;17.75;13.25;;;;;28.82;25.81;101868.28;5095352;27;45416;-79
2022/04/16 10:06:34;;;;;;;;;10.25;9.25;;;;;28.40;25.58;101868.69;5099137;27;45540;-79
2022/04/16 10:09:13;;;;;;;;;9.75;9.50;;;;;27.94;26.17;101853.97;5096859;27;45443;-80
2022/04/16 10:14:47;;;;;;;;;15.00;14.00;;;;;28.05;25.90;101861.34;5099960;27;45507;-81
2022/04/16 10:17:31;;;;;;;;;16.75;13.25;;;;;27.98;26.51;101855.50;5086378;27;45408;-81
2022/04/16 10:20:25;;;;;;;;;18.75;17.75;;;;;27.55;27.35;101863.16;5079985;27;47512;-81
2022/04/16 10:22:56;;;;;;;;;17.50;13.75;;;;;27.50;26.06;101859.91;5079625;27;45631;-82
2022/04/16 10:25:49;;;;;;;;;13.25;10.00;;;;;27.20;26.47;101861.94;5099148;27;45378;-81
2022/04/16 10:28:23;;;;;;;;;13.75;12.75;;;;;27.23;26.56;101871.72;5096312;27;45521;-82
2022/04/16 10:30:55;;;;;;;;;12.00;9.75;;;;;27.75;27.20;101857.16;5101290;27;46592;-80
2022/04/16 10:33:27;;;;;;;;;17.00;16.25;;;;;27.93;26.63;101854.94;5096404;27;45485;-78
2022/04/16 10:35:56;;;;;;;;;13.75;9.50;;;;;27.74;26.61;101855.44;5096181;27;45408;-79
2022/04/16 10:38:31;;;;;;;;;12.00;11.50;;;;;27.62;26.40;101859.03;5099784;27;45568;-83
2022/04/16 10:40:59;;;;;;;;;7.75;7.00;;;;;27.66;27.11;101857.81;5110257;27;46263;-77
2022/04/16 10:43:33;;;;;;;;;8.00;6.00;;;;;27.36;26.12;101861.78;5096106;27;45313;-76
2022/04/16 10:46:04;;;;;;;;;17.75;15.00;;;;;26.79;26.94;101851.28;5095948;27;45457;-78
2022/04/16 10:48:38;;;;;;;;;15.25;13.75;;;;;27.00;26.89;101860.63;5095881;27;45468;-78
2022/04/16 10:51:08;;;;;;;;;13.00;10.75;;;;;26.42;27.89;101850.06;5094409;27;45606;-77
2022/04/16 10:53:36;;;;;;;;;13.25;10.50;;;;;26.92;27.63;101858.47;5074650;28;45499;-76
2022/04/16 10:56:16;;;;;;;;;11.00;10.00;;;;;27.14;25.55;101856.97;5056577;28;45359;-79
2022/04/16 10:58:44;;;;;;;;;11.00;9.50;;;;;26.65;25.13;101865.72;5075478;28;45744;-77
2022/04/16 11:01:12;;;;;;;;;6.25;4.75;;;;;26.44;25.90;101866.22;5075442;27;46296;-77
2022/04/16 11:03:48;;;;;;;;;9.25;9.25;;;;;26.14;26.19;101863.72;5090891;27;45575;-79
2022/04/16 11:06:15;;;;;;;;;8.50;6.75;;;;;26.24;26.03;101856.72;5087187;27;45248;-79
2022/04/16 11:08:42;;;;;;;;;46.50;39.25;;;;;26.45;25.92;101858.94;5097776;27;45452;-79
2022/04/16 11:11:13;;;;;;;;;15.50;13.75;;;;;26.52;26.32;101844.88;5096260;27;46182;-79
2022/04/16 11:13:39;;;;;;;;;14.75;10.25;;;;;27.01;27.38;101843.41;5097406;27;45359;-78
2022/04/16 11:16:08;;;;;;;;;11.00;11.00;;;;;27.30;25.76;101845.91;5094621;27;45443;-78
2022/04/16 11:18:37;;;;;;;;;14.25;10.25;;;;;27.41;26.17;101837.88;5077325;27;45543;-80
2022/04/16 11:21:07;;;;;;;;;7.75;5.75;;;;;27.58;26.74;101843.94;5095216;27;46013;-78
2022/04/16 11:23:42;;;;;;;;;13.25;10.50;;;;;27.56;26.49;101843.16;5095540;27;45535;-79
2022/04/16 11:34:31;;;;;;;;;13.50;10.25;;;;;27.07;26.39;101845.69;5090754;27;45607;-76
2022/04/16 11:36:58;;;;;;;;;10.25;6.25;;;;;27.25;26.44;101854.34;5094424;27;45576;-76